CheckWX is a tool to help pilots better visualize weather data.  It is not intended as a substitute for an official pre-flight weather briefing.

04:39:09 UTC

KGMU TAF
Greenville Downtown Airport
Greenville, South Carolina, USA
KGMU 240526Z 2406/2506 VRB03KT P6SM FEW200 FM241400 06004KT P6SM FEW060 SCT150 FM241800 13005KT P6SM VCSH BKN050 PROB30 2419/2423 3SM TSRA BR OVC035CB FM242300 10004KT P6SM -SHRA VCTS BKN050CB FM250200 05004KT P6SM VCSH SCT050 BKN100

May-24@
06:00 UTC

May-24 @ 06:00 UTC

May-24@
14:00 UTC

May-24 @ 14:00 UTC

TAF KGMU 240526Z 2406/2506 VRB03KT P6SM FEW200

Expired

Wind
  • Variable at 3 KTS
Cloud Levels
  • Few at 20,000' AGL

May-24@
14:00 UTC

May-24 @ 14:00 UTC

May-24@
18:00 UTC

May-24 @ 18:00 UTC

FM241400 06004KT P6SM FEW060 SCT150

Expired

Wind
  • 060° at 4 KTS
Cloud Levels
  • Few at 6,000' AGL
  • Scattered at 15,000' AGL

May-24@
18:00 UTC

May-24 @ 18:00 UTC

May-24@
23:00 UTC

May-24 @ 23:00 UTC

FM241800 13005KT P6SM VCSH BKN050

Expired

Wind
  • 130° at 5 KTS
Conditions
Area Showers
Cloud Levels
  • Broken at 5,000' AGL

May-24@
19:00 UTC

May-24 @ 19:00 UTC

May-24@
23:00 UTC

May-24 @ 23:00 UTC

PROB30 2419/2423 3SM TSRA BR OVC035CB

Expired

Conditions
Thunderstorm, Rain, Mist
Cloud Levels
  • Overcast at 3,500' AGL

May-24@
23:00 UTC

May-24 @ 23:00 UTC

May-25@
02:00 UTC

May-25 @ 02:00 UTC

FM242300 10004KT P6SM -SHRA VCTS BKN050CB

Expired

Wind
  • 100° at 4 KTS
Conditions
Light Showers, Rain, Area Thunderstorm
Cloud Levels
  • Broken at 5,000' AGL

May-25@
02:00 UTC

May-25 @ 02:00 UTC

May-25@
06:00 UTC

May-25 @ 06:00 UTC

FM250200 05004KT P6SM VCSH SCT050 BKN100

From

From Standard forecast or significant change

Wind
  • 050° at 4 KTS
Conditions
Area Showers
Cloud Levels
  • Scattered at 5,000' AGL
  • Broken at 10,000' AGL